Kemnay, United Kingdom
Current Conditions -  °F | °C
As of 6:20 PM on Sunday 23 Nov 2014 (Local Time) from EGPD Reporting Station
Clear Clear  
Wind Chill: 36°   Ceiling: Unl
Heat Index: 41°   Visibility: 6mi
Dew Point: 34°   Wind: 7mph
Humidity: 76%   Direction: 240°WSW
Pressure: 29.91"   Gusts: NA
Location:  57.24°N, 2.44°W
Report Text: EGPD 231820Z 24006KT CAVOK 05/01 Q1013 NOSIG
Loading
Personal Weather Stations






























Interactive Weather Map New forecast layout! Learn more

10-Day Weather Forecast

Advertisements
Track Severe Weather on mobile